sensor_id;sensor_type;location;lat;lon;timestamp;P1;durP1;ratioP1;P2;durP2;ratioP2
6864;SDS011;3471;49.678;8.388;2024-02-21T00:00:45;17.40;;;7.23;;
6864;SDS011;3471;49.678;8.388;2024-02-21T00:03:11;15.10;;;7.70;;
6864;SDS011;3471;49.678;8.388;2024-02-21T00:05:36;9.93;;;7.60;;
6864;SDS011;3471;49.678;8.388;2024-02-21T00:08:02;16.97;;;8.87;;
6864;SDS011;3471;49.678;8.388;2024-02-21T00:10:28;19.55;;;8.70;;
6864;SDS011;3471;49.678;8.388;2024-02-21T00:12:54;17.00;;;7.93;;
6864;SDS011;3471;49.678;8.388;2024-02-21T00:15:19;21.10;;;9.67;;
6864;SDS011;3471;49.678;8.388;2024-02-21T00:17:46;13.13;;;8.17;;
6864;SDS011;3471;49.678;8.388;2024-02-21T00:20:11;14.40;;;8.52;;
6864;SDS011;3471;49.678;8.388;2024-02-21T00:22:37;10.00;;;8.50;;
6864;SDS011;3471;49.678;8.388;2024-02-21T00:25:03;24.63;;;10.50;;
6864;SDS011;3471;49.678;8.388;2024-02-21T00:27:28;13.73;;;9.55;;
6864;SDS011;3471;49.678;8.388;2024-02-21T00:29:54;22.30;;;10.50;;
6864;SDS011;3471;49.678;8.388;2024-02-21T00:32:20;15.88;;;9.50;;
6864;SDS011;3471;49.678;8.388;2024-02-21T00:34:45;12.40;;;8.82;;
6864;SDS011;3471;49.678;8.388;2024-02-21T00:37:11;11.50;;;8.10;;
6864;SDS011;3471;49.678;8.388;2024-02-21T00:39:37;17.95;;;10.65;;
6864;SDS011;3471;49.678;8.388;2024-02-21T00:42:02;14.10;;;9.40;;
6864;SDS011;3471;49.678;8.388;2024-02-21T00:44:28;19.80;;;9.03;;
6864;SDS011;3471;49.678;8.388;2024-02-21T00:46:53;11.38;;;7.72;;
6864;SDS011;3471;49.678;8.388;2024-02-21T00:49:19;11.67;;;7.73;;
6864;SDS011;3471;49.678;8.388;2024-02-21T00:51:45;16.20;;;8.03;;
6864;SDS011;3471;49.678;8.388;2024-02-21T00:54:10;8.20;;;7.40;;
6864;SDS011;3471;49.678;8.388;2024-02-21T00:56:36;16.20;;;7.93;;
6864;SDS011;3471;49.678;8.388;2024-02-21T00:59:01;13.23;;;8.40;;
6864;SDS011;3471;49.678;8.388;2024-02-21T01:01:27;18.35;;;7.32;;
6864;SDS011;3471;49.678;8.388;2024-02-21T01:03:53;12.37;;;7.00;;
6864;SDS011;3471;49.678;8.388;2024-02-21T01:06:19;10.70;;;6.00;;
6864;SDS011;3471;49.678;8.388;2024-02-21T01:08:46;8.10;;;6.43;;
6864;SDS011;3471;49.678;8.388;2024-02-21T01:11:12;9.57;;;6.90;;
6864;SDS011;3471;49.678;8.388;2024-02-21T01:13:38;7.73;;;6.00;;
6864;SDS011;3471;49.678;8.388;2024-02-21T01:16:04;16.05;;;7.30;;
6864;SDS011;3471;49.678;8.388;2024-02-21T01:18:31;10.77;;;6.87;;
6864;SDS011;3471;49.678;8.388;2024-02-21T01:20:57;8.38;;;5.47;;
6864;SDS011;3471;49.678;8.388;2024-02-21T01:23:23;12.77;;;6.20;;
6864;SDS011;3471;49.678;8.388;2024-02-21T01:25:48;12.37;;;7.13;;
6864;SDS011;3471;49.678;8.388;2024-02-21T01:28:14;14.77;;;6.87;;
6864;SDS011;3471;49.678;8.388;2024-02-21T01:30:40;20.05;;;8.43;;
6864;SDS011;3471;49.678;8.388;2024-02-21T01:33:05;8.50;;;5.90;;
6864;SDS011;3471;49.678;8.388;2024-02-21T01:35:31;13.55;;;8.23;;
6864;SDS011;3471;49.678;8.388;2024-02-21T01:37:56;19.20;;;8.30;;
6864;SDS011;3471;49.678;8.388;2024-02-21T01:40:22;13.07;;;8.23;;
6864;SDS011;3471;49.678;8.388;2024-02-21T01:42:47;9.25;;;8.35;;
6864;SDS011;3471;49.678;8.388;2024-02-21T01:45:13;17.80;;;9.73;;
6864;SDS011;3471;49.678;8.388;2024-02-21T01:47:39;17.27;;;6.97;;
6864;SDS011;3471;49.678;8.388;2024-02-21T01:50:05;11.98;;;7.53;;
6864;SDS011;3471;49.678;8.388;2024-02-21T01:52:31;18.57;;;6.00;;
6864;SDS011;3471;49.678;8.388;2024-02-21T01:54:59;11.15;;;8.70;;
6864;SDS011;3471;49.678;8.388;2024-02-21T01:57:25;19.30;;;8.20;;
6864;SDS011;3471;49.678;8.388;2024-02-21T01:59:51;13.60;;;8.83;;
6864;SDS011;3471;49.678;8.388;2024-02-21T02:02:17;16.27;;;8.43;;
6864;SDS011;3471;49.678;8.388;2024-02-21T02:04:43;10.27;;;8.05;;
6864;SDS011;3471;49.678;8.388;2024-02-21T02:07:10;20.90;;;9.77;;
6864;SDS011;3471;49.678;8.388;2024-02-21T02:09:35;13.90;;;7.07;;
6864;SDS011;3471;49.678;8.388;2024-02-21T02:12:01;16.90;;;7.63;;
6864;SDS011;3471;49.678;8.388;2024-02-21T02:14:27;15.88;;;7.97;;
6864;SDS011;3471;49.678;8.388;2024-02-21T02:16:52;15.13;;;6.87;;
6864;SDS011;3471;49.678;8.388;2024-02-21T02:19:18;21.37;;;8.00;;
6864;SDS011;3471;49.678;8.388;2024-02-21T02:21:52;6.80;;;5.47;;
6864;SDS011;3471;49.678;8.388;2024-02-21T02:24:21;15.65;;;7.45;;
6864;SDS011;3471;49.678;8.388;2024-02-21T02:26:50;17.58;;;8.10;;
6864;SDS011;3471;49.678;8.388;2024-02-21T02:29:16;13.93;;;5.73;;
6864;SDS011;3471;49.678;8.388;2024-02-21T02:31:42;8.27;;;7.45;;
6864;SDS011;3471;49.678;8.388;2024-02-21T02:34:08;8.50;;;5.90;;
6864;SDS011;3471;49.678;8.388;2024-02-21T02:36:35;10.55;;;6.15;;
6864;SDS011;3471;49.678;8.388;2024-02-21T02:39:01;13.10;;;7.18;;
6864;SDS011;3471;49.678;8.388;2024-02-21T02:41:27;11.15;;;7.35;;
6864;SDS011;3471;49.678;8.388;2024-02-21T02:43:52;12.25;;;6.38;;
6864;SDS011;3471;49.678;8.388;2024-02-21T02:46:18;16.73;;;6.00;;
6864;SDS011;3471;49.678;8.388;2024-02-21T02:48:43;12.95;;;5.65;;
6864;SDS011;3471;49.678;8.388;2024-02-21T02:51:10;14.70;;;7.03;;
6864;SDS011;3471;49.678;8.388;2024-02-21T02:53:35;10.48;;;5.63;;
6864;SDS011;3471;49.678;8.388;2024-02-21T02:56:01;19.00;;;6.37;;
6864;SDS011;3471;49.678;8.388;2024-02-21T02:58:28;9.75;;;6.20;;
6864;SDS011;3471;49.678;8.388;2024-02-21T03:00:54;12.73;;;6.93;;
6864;SDS011;3471;49.678;8.388;2024-02-21T03:03:19;11.27;;;6.10;;
6864;SDS011;3471;49.678;8.388;2024-02-21T03:05:45;16.30;;;5.90;;
6864;SDS011;3471;49.678;8.388;2024-02-21T03:08:11;8.43;;;5.80;;
6864;SDS011;3471;49.678;8.388;2024-02-21T03:10:36;8.90;;;4.90;;
6864;SDS011;3471;49.678;8.388;2024-02-21T03:13:02;11.60;;;5.77;;
6864;SDS011;3471;49.678;8.388;2024-02-21T03:15:28;11.82;;;5.57;;
6864;SDS011;3471;49.678;8.388;2024-02-21T03:17:54;8.60;;;5.60;;
6864;SDS011;3471;49.678;8.388;2024-02-21T03:20:19;7.10;;;5.30;;
6864;SDS011;3471;49.678;8.388;2024-02-21T03:22:45;15.05;;;5.50;;
6864;SDS011;3471;49.678;8.388;2024-02-21T03:25:11;16.52;;;6.07;;
6864;SDS011;3471;49.678;8.388;2024-02-21T03:27:37;9.88;;;6.00;;
6864;SDS011;3471;49.678;8.388;2024-02-21T03:30:03;10.60;;;6.75;;
6864;SDS011;3471;49.678;8.388;2024-02-21T03:32:29;5.38;;;4.72;;
6864;SDS011;3471;49.678;8.388;2024-02-21T03:34:55;14.17;;;6.50;;
6864;SDS011;3471;49.678;8.388;2024-02-21T03:37:20;11.65;;;7.00;;
6864;SDS011;3471;49.678;8.388;2024-02-21T03:39:46;20.55;;;6.35;;
6864;SDS011;3471;49.678;8.388;2024-02-21T03:42:12;6.43;;;4.63;;
6864;SDS011;3471;49.678;8.388;2024-02-21T03:44:37;13.67;;;6.30;;
6864;SDS011;3471;49.678;8.388;2024-02-21T03:47:03;16.27;;;6.38;;
6864;SDS011;3471;49.678;8.388;2024-02-21T03:49:29;5.40;;;4.90;;
6864;SDS011;3471;49.678;8.388;2024-02-21T03:51:54;11.32;;;6.22;;
6864;SDS011;3471;49.678;8.388;2024-02-21T03:54:20;18.83;;;7.37;;
6864;SDS011;3471;49.678;8.388;2024-02-21T03:56:46;13.93;;;4.97;;
6864;SDS011;3471;49.678;8.388;2024-02-21T03:59:15;15.20;;;6.40;;
6864;SDS011;3471;49.678;8.388;2024-02-21T04:01:41;17.73;;;6.65;;
6864;SDS011;3471;49.678;8.388;2024-02-21T04:04:06;11.73;;;6.13;;
6864;SDS011;3471;49.678;8.388;2024-02-21T04:06:32;14.25;;;6.22;;
6864;SDS011;3471;49.678;8.388;2024-02-21T04:08:58;9.63;;;7.50;;
6864;SDS011;3471;49.678;8.388;2024-02-21T04:11:23;13.73;;;6.32;;
6864;SDS011;3471;49.678;8.388;2024-02-21T04:13:49;11.40;;;6.53;;
6864;SDS011;3471;49.678;8.388;2024-02-21T04:16:16;4.88;;;4.20;;
6864;SDS011;3471;49.678;8.388;2024-02-21T04:18:42;11.10;;;4.07;;
6864;SDS011;3471;49.678;8.388;2024-02-21T04:21:08;9.50;;;5.33;;
6864;SDS011;3471;49.678;8.388;2024-02-21T04:23:34;19.33;;;6.90;;
6864;SDS011;3471;49.678;8.388;2024-02-21T04:26:00;12.37;;;6.07;;
6864;SDS011;3471;49.678;8.388;2024-02-21T04:28:25;12.68;;;6.53;;
6864;SDS011;3471;49.678;8.388;2024-02-21T04:30:51;15.17;;;5.23;;
6864;SDS011;3471;49.678;8.388;2024-02-21T04:33:16;6.97;;;4.33;;
6864;SDS011;3471;49.678;8.388;2024-02-21T04:35:42;10.68;;;4.10;;
6864;SDS011;3471;49.678;8.388;2024-02-21T04:38:07;12.93;;;6.07;;
6864;SDS011;3471;49.678;8.388;2024-02-21T04:40:33;9.37;;;5.77;;
6864;SDS011;3471;49.678;8.388;2024-02-21T04:42:58;15.70;;;6.43;;
6864;SDS011;3471;49.678;8.388;2024-02-21T04:45:24;15.65;;;5.72;;
6864;SDS011;3471;49.678;8.388;2024-02-21T04:47:50;14.27;;;6.90;;
6864;SDS011;3471;49.678;8.388;2024-02-21T04:50:15;17.70;;;6.43;;
6864;SDS011;3471;49.678;8.388;2024-02-21T04:52:42;6.70;;;4.88;;
6864;SDS011;3471;49.678;8.388;2024-02-21T04:55:08;19.02;;;5.55;;
6864;SDS011;3471;49.678;8.388;2024-02-21T04:57:34;14.83;;;5.13;;
6864;SDS011;3471;49.678;8.388;2024-02-21T04:59:59;7.30;;;3.53;;
6864;SDS011;3471;49.678;8.388;2024-02-21T05:02:25;11.13;;;5.10;;
6864;SDS011;3471;49.678;8.388;2024-02-21T05:04:52;9.77;;;5.80;;
6864;SDS011;3471;49.678;8.388;2024-02-21T05:07:17;11.65;;;5.10;;
6864;SDS011;3471;49.678;8.388;2024-02-21T05:09:44;7.75;;;5.20;;
6864;SDS011;3471;49.678;8.388;2024-02-21T05:12:10;6.88;;;4.05;;
6864;SDS011;3471;49.678;8.388;2024-02-21T05:14:36;19.17;;;4.97;;
6864;SDS011;3471;49.678;8.388;2024-02-21T05:17:02;10.13;;;4.32;;
6864;SDS011;3471;49.678;8.388;2024-02-21T05:19:28;13.55;;;5.50;;
6864;SDS011;3471;49.678;8.388;2024-02-21T05:21:54;9.65;;;5.25;;
6864;SDS011;3471;49.678;8.388;2024-02-21T05:24:19;14.02;;;3.75;;
6864;SDS011;3471;49.678;8.388;2024-02-21T05:26:45;11.67;;;4.30;;
6864;SDS011;3471;49.678;8.388;2024-02-21T05:29:11;10.40;;;4.65;;
6864;SDS011;3471;49.678;8.388;2024-02-21T05:34:21;8.90;;;4.95;;
6864;SDS011;3471;49.678;8.388;2024-02-21T05:36:47;12.52;;;5.22;;
6864;SDS011;3471;49.678;8.388;2024-02-21T05:39:14;8.38;;;4.00;;
6864;SDS011;3471;49.678;8.388;2024-02-21T05:41:41;7.30;;;3.45;;
6864;SDS011;3471;49.678;8.388;2024-02-21T05:44:06;9.43;;;7.17;;
6864;SDS011;3471;49.678;8.388;2024-02-21T05:46:32;9.57;;;4.85;;
6864;SDS011;3471;49.678;8.388;2024-02-21T05:48:58;5.70;;;3.87;;
6864;SDS011;3471;49.678;8.388;2024-02-21T05:51:23;5.83;;;4.93;;
6864;SDS011;3471;49.678;8.388;2024-02-21T05:53:49;7.35;;;3.72;;
6864;SDS011;3471;49.678;8.388;2024-02-21T05:56:14;16.80;;;5.53;;
6864;SDS011;3471;49.678;8.388;2024-02-21T05:58:40;10.37;;;4.67;;
6864;SDS011;3471;49.678;8.388;2024-02-21T06:01:06;7.63;;;5.68;;
6864;SDS011;3471;49.678;8.388;2024-02-21T06:03:35;16.98;;;4.68;;
6864;SDS011;3471;49.678;8.388;2024-02-21T06:06:04;7.57;;;4.78;;
6864;SDS011;3471;49.678;8.388;2024-02-21T06:08:32;10.60;;;5.53;;
6864;SDS011;3471;49.678;8.388;2024-02-21T06:10:58;10.68;;;3.65;;
6864;SDS011;3471;49.678;8.388;2024-02-21T06:13:23;9.90;;;4.60;;
6864;SDS011;3471;49.678;8.388;2024-02-21T06:15:49;8.50;;;3.90;;
6864;SDS011;3471;49.678;8.388;2024-02-21T06:18:17;9.88;;;4.70;;
6864;SDS011;3471;49.678;8.388;2024-02-21T06:20:42;9.38;;;4.65;;
6864;SDS011;3471;49.678;8.388;2024-02-21T06:23:08;8.57;;;4.57;;
6864;SDS011;3471;49.678;8.388;2024-02-21T06:25:34;10.57;;;4.40;;
6864;SDS011;3471;49.678;8.388;2024-02-21T06:28:00;15.37;;;4.47;;
6864;SDS011;3471;49.678;8.388;2024-02-21T06:30:25;11.50;;;4.93;;
6864;SDS011;3471;49.678;8.388;2024-02-21T06:32:51;13.98;;;6.10;;
6864;SDS011;3471;49.678;8.388;2024-02-21T06:35:17;9.00;;;4.05;;
6864;SDS011;3471;49.678;8.388;2024-02-21T06:37:43;12.30;;;5.10;;
6864;SDS011;3471;49.678;8.388;2024-02-21T06:40:10;14.98;;;5.05;;
6864;SDS011;3471;49.678;8.388;2024-02-21T06:42:36;7.53;;;4.60;;
6864;SDS011;3471;49.678;8.388;2024-02-21T06:45:01;9.60;;;5.27;;
6864;SDS011;3471;49.678;8.388;2024-02-21T06:47:27;6.20;;;4.00;;
6864;SDS011;3471;49.678;8.388;2024-02-21T06:49:53;6.93;;;4.43;;
6864;SDS011;3471;49.678;8.388;2024-02-21T06:52:18;9.07;;;6.43;;
6864;SDS011;3471;49.678;8.388;2024-02-21T06:54:48;8.48;;;5.00;;
6864;SDS011;3471;49.678;8.388;2024-02-21T06:57:14;9.02;;;4.20;;
6864;SDS011;3471;49.678;8.388;2024-02-21T06:59:43;11.57;;;4.75;;
6864;SDS011;3471;49.678;8.388;2024-02-21T07:02:08;9.03;;;4.80;;
6864;SDS011;3471;49.678;8.388;2024-02-21T07:04:34;15.52;;;6.63;;
6864;SDS011;3471;49.678;8.388;2024-02-21T07:06:59;9.20;;;6.40;;
6864;SDS011;3471;49.678;8.388;2024-02-21T07:09:25;13.55;;;4.85;;
6864;SDS011;3471;49.678;8.388;2024-02-21T07:11:51;13.75;;;5.32;;
6864;SDS011;3471;49.678;8.388;2024-02-21T07:14:18;11.30;;;5.37;;
6864;SDS011;3471;49.678;8.388;2024-02-21T07:16:43;7.80;;;4.13;;
6864;SDS011;3471;49.678;8.388;2024-02-21T07:19:09;10.35;;;4.50;;
6864;SDS011;3471;49.678;8.388;2024-02-21T07:21:34;15.52;;;5.28;;
6864;SDS011;3471;49.678;8.388;2024-02-21T07:24:03;11.77;;;6.13;;
6864;SDS011;3471;49.678;8.388;2024-02-21T07:26:29;15.40;;;6.30;;
6864;SDS011;3471;49.678;8.388;2024-02-21T07:28:54;16.08;;;6.00;;
6864;SDS011;3471;49.678;8.388;2024-02-21T07:31:20;16.97;;;5.60;;
6864;SDS011;3471;49.678;8.388;2024-02-21T07:33:45;6.82;;;4.13;;
6864;SDS011;3471;49.678;8.388;2024-02-21T07:36:11;12.87;;;5.87;;
6864;SDS011;3471;49.678;8.388;2024-02-21T07:38:37;9.00;;;6.20;;
6864;SDS011;3471;49.678;8.388;2024-02-21T07:41:02;11.07;;;5.95;;
6864;SDS011;3471;49.678;8.388;2024-02-21T07:43:29;18.13;;;7.03;;
6864;SDS011;3471;49.678;8.388;2024-02-21T07:45:55;26.33;;;4.93;;
6864;SDS011;3471;49.678;8.388;2024-02-21T07:48:21;5.53;;;5.00;;
6864;SDS011;3471;49.678;8.388;2024-02-21T07:50:49;13.20;;;5.22;;
6864;SDS011;3471;49.678;8.388;2024-02-21T07:53:15;19.33;;;7.80;;
6864;SDS011;3471;49.678;8.388;2024-02-21T07:55:41;9.30;;;5.27;;
6864;SDS011;3471;49.678;8.388;2024-02-21T07:58:07;7.47;;;5.20;;
6864;SDS011;3471;49.678;8.388;2024-02-21T08:00:32;16.35;;;5.07;;
6864;SDS011;3471;49.678;8.388;2024-02-21T08:02:58;7.57;;;5.43;;
6864;SDS011;3471;49.678;8.388;2024-02-21T08:05:24;5.63;;;4.80;;
6864;SDS011;3471;49.678;8.388;2024-02-21T08:07:49;16.87;;;5.60;;
6864;SDS011;3471;49.678;8.388;2024-02-21T08:10:15;7.20;;;4.97;;
6864;SDS011;3471;49.678;8.388;2024-02-21T08:12:41;16.73;;;5.80;;
6864;SDS011;3471;49.678;8.388;2024-02-21T08:15:06;10.30;;;5.30;;
6864;SDS011;3471;49.678;8.388;2024-02-21T08:17:35;5.47;;;4.97;;
6864;SDS011;3471;49.678;8.388;2024-02-21T08:20:01;26.10;;;6.55;;
6864;SDS011;3471;49.678;8.388;2024-02-21T08:22:27;12.30;;;5.53;;
6864;SDS011;3471;49.678;8.388;2024-02-21T08:24:53;8.87;;;6.30;;
6864;SDS011;3471;49.678;8.388;2024-02-21T08:27:19;11.40;;;5.60;;
6864;SDS011;3471;49.678;8.388;2024-02-21T08:29:44;13.30;;;4.90;;
6864;SDS011;3471;49.678;8.388;2024-02-21T08:32:10;10.40;;;5.43;;
6864;SDS011;3471;49.678;8.388;2024-02-21T08:34:35;11.17;;;4.70;;
6864;SDS011;3471;49.678;8.388;2024-02-21T08:37:01;14.97;;;7.17;;
6864;SDS011;3471;49.678;8.388;2024-02-21T08:39:26;14.95;;;5.90;;
6864;SDS011;3471;49.678;8.388;2024-02-21T08:41:53;9.10;;;5.28;;
6864;SDS011;3471;49.678;8.388;2024-02-21T08:44:19;10.82;;;5.38;;
6864;SDS011;3471;49.678;8.388;2024-02-21T08:46:46;10.35;;;4.80;;
6864;SDS011;3471;49.678;8.388;2024-02-21T08:49:12;8.73;;;4.90;;
6864;SDS011;3471;49.678;8.388;2024-02-21T08:51:38;29.98;;;7.00;;
6864;SDS011;3471;49.678;8.388;2024-02-21T08:54:04;11.02;;;5.40;;
6864;SDS011;3471;49.678;8.388;2024-02-21T08:56:30;16.93;;;5.40;;
6864;SDS011;3471;49.678;8.388;2024-02-21T08:58:56;18.92;;;5.93;;
6864;SDS011;3471;49.678;8.388;2024-02-21T09:01:23;6.30;;;4.87;;
6864;SDS011;3471;49.678;8.388;2024-02-21T09:03:48;9.57;;;4.88;;
6864;SDS011;3471;49.678;8.388;2024-02-21T09:06:18;11.35;;;4.93;;
6864;SDS011;3471;49.678;8.388;2024-02-21T09:08:45;10.97;;;5.63;;
6864;SDS011;3471;49.678;8.388;2024-02-21T09:11:10;7.65;;;6.13;;
6864;SDS011;3471;49.678;8.388;2024-02-21T09:13:36;11.95;;;6.43;;
6864;SDS011;3471;49.678;8.388;2024-02-21T09:16:02;13.25;;;6.28;;
6864;SDS011;3471;49.678;8.388;2024-02-21T09:18:28;6.30;;;5.15;;
6864;SDS011;3471;49.678;8.388;2024-02-21T09:20:54;8.32;;;5.68;;
6864;SDS011;3471;49.678;8.388;2024-02-21T09:23:20;10.43;;;3.67;;
6864;SDS011;3471;49.678;8.388;2024-02-21T09:25:48;13.25;;;5.10;;
6864;SDS011;3471;49.678;8.388;2024-02-21T09:28:14;11.60;;;4.32;;
6864;SDS011;3471;49.678;8.388;2024-02-21T09:30:39;10.75;;;4.70;;
6864;SDS011;3471;49.678;8.388;2024-02-21T09:33:05;9.05;;;5.03;;
6864;SDS011;3471;49.678;8.388;2024-02-21T09:35:31;15.40;;;5.70;;
6864;SDS011;3471;49.678;8.388;2024-02-21T09:37:58;9.27;;;4.65;;
6864;SDS011;3471;49.678;8.388;2024-02-21T09:40:24;9.20;;;5.67;;
6864;SDS011;3471;49.678;8.388;2024-02-21T09:42:50;9.50;;;5.75;;
6864;SDS011;3471;49.678;8.388;2024-02-21T09:45:29;5.43;;;3.33;;
6864;SDS011;3471;49.678;8.388;2024-02-21T09:50:58;14.63;;;6.05;;
6864;SDS011;3471;49.678;8.388;2024-02-21T09:53:24;12.77;;;6.28;;
6864;SDS011;3471;49.678;8.388;2024-02-21T09:55:50;9.70;;;6.30;;
6864;SDS011;3471;49.678;8.388;2024-02-21T09:58:17;13.30;;;5.13;;
6864;SDS011;3471;49.678;8.388;2024-02-21T10:00:43;18.85;;;6.32;;
6864;SDS011;3471;49.678;8.388;2024-02-21T10:03:09;6.20;;;5.10;;
6864;SDS011;3471;49.678;8.388;2024-02-21T10:05:35;9.52;;;6.43;;
6864;SDS011;3471;49.678;8.388;2024-02-21T10:08:02;13.13;;;6.20;;
6864;SDS011;3471;49.678;8.388;2024-02-21T10:10:29;9.90;;;5.32;;
6864;SDS011;3471;49.678;8.388;2024-02-21T10:12:55;10.82;;;4.63;;
6864;SDS011;3471;49.678;8.388;2024-02-21T10:15:22;7.43;;;4.95;;
6864;SDS011;3471;49.678;8.388;2024-02-21T10:17:49;10.02;;;6.28;;
6864;SDS011;3471;49.678;8.388;2024-02-21T10:20:15;8.00;;;5.57;;
6864;SDS011;3471;49.678;8.388;2024-02-21T10:22:41;10.55;;;5.47;;
6864;SDS011;3471;49.678;8.388;2024-02-21T10:25:10;16.80;;;6.47;;
6864;SDS011;3471;49.678;8.388;2024-02-21T10:27:37;10.07;;;5.00;;
6864;SDS011;3471;49.678;8.388;2024-02-21T10:30:04;9.88;;;4.47;;
6864;SDS011;3471;49.678;8.388;2024-02-21T10:32:32;9.13;;;5.00;;
6864;SDS011;3471;49.678;8.388;2024-02-21T10:35:04;15.90;;;3.80;;
6864;SDS011;3471;49.678;8.388;2024-02-21T10:37:30;9.45;;;3.60;;
6864;SDS011;3471;49.678;8.388;2024-02-21T10:39:56;13.50;;;5.45;;
6864;SDS011;3471;49.678;8.388;2024-02-21T10:42:22;8.93;;;4.53;;
6864;SDS011;3471;49.678;8.388;2024-02-21T10:44:50;6.93;;;4.38;;
6864;SDS011;3471;49.678;8.388;2024-02-21T10:47:19;6.88;;;2.90;;
6864;SDS011;3471;49.678;8.388;2024-02-21T10:49:49;14.50;;;3.95;;
6864;SDS011;3471;49.678;8.388;2024-02-21T10:55:51;19.42;;;6.25;;
6864;SDS011;3471;49.678;8.388;2024-02-21T10:58:23;7.40;;;3.20;;
6864;SDS011;3471;49.678;8.388;2024-02-21T11:00:50;5.47;;;3.78;;
6864;SDS011;3471;49.678;8.388;2024-02-21T11:03:17;11.27;;;4.20;;
6864;SDS011;3471;49.678;8.388;2024-02-21T11:05:43;12.00;;;5.97;;
6864;SDS011;3471;49.678;8.388;2024-02-21T11:08:10;7.60;;;5.00;;
6864;SDS011;3471;49.678;8.388;2024-02-21T11:10:37;9.38;;;4.07;;
6864;SDS011;3471;49.678;8.388;2024-02-21T11:13:06;9.32;;;3.97;;
6864;SDS011;3471;49.678;8.388;2024-02-21T11:15:33;6.60;;;3.15;;
6864;SDS011;3471;49.678;8.388;2024-02-21T11:17:58;16.10;;;5.20;;
6864;SDS011;3471;49.678;8.388;2024-02-21T11:20:36;8.60;;;3.05;;
6864;SDS011;3471;49.678;8.388;2024-02-21T11:23:03;6.93;;;4.20;;
6864;SDS011;3471;49.678;8.388;2024-02-21T11:25:29;16.42;;;5.53;;
6864;SDS011;3471;49.678;8.388;2024-02-21T11:28:01;11.88;;;4.50;;
6864;SDS011;3471;49.678;8.388;2024-02-21T11:30:31;10.83;;;4.60;;
6864;SDS011;3471;49.678;8.388;2024-02-21T11:33:05;9.88;;;3.72;;
6864;SDS011;3471;49.678;8.388;2024-02-21T11:35:34;10.50;;;3.75;;
6864;SDS011;3471;49.678;8.388;2024-02-21T11:38:07;8.45;;;4.40;;
6864;SDS011;3471;49.678;8.388;2024-02-21T11:40:35;7.90;;;3.25;;
6864;SDS011;3471;49.678;8.388;2024-02-21T11:43:03;13.38;;;4.80;;
6864;SDS011;3471;49.678;8.388;2024-02-21T11:45:29;11.60;;;3.90;;
6864;SDS011;3471;49.678;8.388;2024-02-21T11:47:57;11.70;;;5.13;;
6864;SDS011;3471;49.678;8.388;2024-02-21T11:50:25;13.50;;;4.40;;
6864;SDS011;3471;49.678;8.388;2024-02-21T11:52:51;13.53;;;5.63;;
6864;SDS011;3471;49.678;8.388;2024-02-21T11:55:19;4.55;;;4.15;;
6864;SDS011;3471;49.678;8.388;2024-02-21T11:57:47;12.70;;;4.40;;
6864;SDS011;3471;49.678;8.388;2024-02-21T12:00:16;11.43;;;4.57;;
6864;SDS011;3471;49.678;8.388;2024-02-21T12:02:45;10.60;;;3.90;;
6864;SDS011;3471;49.678;8.388;2024-02-21T12:05:11;11.52;;;4.60;;
6864;SDS011;3471;49.678;8.388;2024-02-21T12:07:37;6.68;;;3.65;;
6864;SDS011;3471;49.678;8.388;2024-02-21T12:10:09;8.80;;;3.83;;
6864;SDS011;3471;49.678;8.388;2024-02-21T12:12:38;8.13;;;3.72;;
6864;SDS011;3471;49.678;8.388;2024-02-21T12:15:05;7.68;;;4.28;;
6864;SDS011;3471;49.678;8.388;2024-02-21T12:17:33;16.35;;;5.45;;
6864;SDS011;3471;49.678;8.388;2024-02-21T12:20:00;21.10;;;5.50;;
6864;SDS011;3471;49.678;8.388;2024-02-21T12:24:53;7.40;;;3.55;;
6864;SDS011;3471;49.678;8.388;2024-02-21T12:27:18;4.38;;;3.10;;
6864;SDS011;3471;49.678;8.388;2024-02-21T12:29:44;8.57;;;4.07;;
6864;SDS011;3471;49.678;8.388;2024-02-21T12:32:09;5.03;;;3.30;;
6864;SDS011;3471;49.678;8.388;2024-02-21T12:34:35;10.73;;;3.60;;
6864;SDS011;3471;49.678;8.388;2024-02-21T12:37:01;4.88;;;3.58;;
6864;SDS011;3471;49.678;8.388;2024-02-21T12:39:28;8.68;;;3.58;;
6864;SDS011;3471;49.678;8.388;2024-02-21T12:41:54;5.90;;;3.70;;
6864;SDS011;3471;49.678;8.388;2024-02-21T12:44:21;11.07;;;3.95;;
6864;SDS011;3471;49.678;8.388;2024-02-21T12:46:46;11.23;;;3.10;;
6864;SDS011;3471;49.678;8.388;2024-02-21T12:49:16;6.20;;;2.85;;
6864;SDS011;3471;49.678;8.388;2024-02-21T12:51:43;15.40;;;3.40;;
6864;SDS011;3471;49.678;8.388;2024-02-21T12:54:08;4.60;;;4.20;;
6864;SDS011;3471;49.678;8.388;2024-02-21T12:56:36;3.95;;;2.72;;
6864;SDS011;3471;49.678;8.388;2024-02-21T12:59:02;15.57;;;4.60;;
6864;SDS011;3471;49.678;8.388;2024-02-21T13:01:27;7.47;;;3.13;;
6864;SDS011;3471;49.678;8.388;2024-02-21T13:03:53;11.77;;;4.50;;
6864;SDS011;3471;49.678;8.388;2024-02-21T13:06:19;5.88;;;3.00;;
6864;SDS011;3471;49.678;8.388;2024-02-21T13:08:44;11.77;;;3.87;;
6864;SDS011;3471;49.678;8.388;2024-02-21T13:11:11;7.47;;;3.15;;
6864;SDS011;3471;49.678;8.388;2024-02-21T13:13:37;6.10;;;3.30;;
6864;SDS011;3471;49.678;8.388;2024-02-21T13:16:03;7.67;;;3.27;;
6864;SDS011;3471;49.678;8.388;2024-02-21T13:18:29;9.82;;;3.50;;
6864;SDS011;3471;49.678;8.388;2024-02-21T13:20:55;6.68;;;2.97;;
6864;SDS011;3471;49.678;8.388;2024-02-21T13:23:21;5.30;;;3.05;;
6864;SDS011;3471;49.678;8.388;2024-02-21T13:25:46;10.52;;;3.33;;
6864;SDS011;3471;49.678;8.388;2024-02-21T13:28:12;6.55;;;3.67;;
6864;SDS011;3471;49.678;8.388;2024-02-21T13:30:40;10.13;;;3.75;;
6864;SDS011;3471;49.678;8.388;2024-02-21T13:33:06;4.07;;;3.20;;
6864;SDS011;3471;49.678;8.388;2024-02-21T13:35:32;8.80;;;3.65;;
6864;SDS011;3471;49.678;8.388;2024-02-21T13:37:58;8.53;;;3.80;;
6864;SDS011;3471;49.678;8.388;2024-02-21T13:40:23;5.00;;;3.20;;
6864;SDS011;3471;49.678;8.388;2024-02-21T13:42:50;7.75;;;3.60;;
6864;SDS011;3471;49.678;8.388;2024-02-21T13:45:16;7.77;;;3.10;;
6864;SDS011;3471;49.678;8.388;2024-02-21T13:47:42;3.05;;;2.70;;
6864;SDS011;3471;49.678;8.388;2024-02-21T13:50:07;4.80;;;2.75;;
6864;SDS011;3471;49.678;8.388;2024-02-21T13:52:35;4.55;;;2.05;;
6864;SDS011;3471;49.678;8.388;2024-02-21T13:55:02;2.75;;;2.55;;
6864;SDS011;3471;49.678;8.388;2024-02-21T13:57:28;3.08;;;2.08;;
6864;SDS011;3471;49.678;8.388;2024-02-21T13:59:53;11.57;;;3.47;;
6864;SDS011;3471;49.678;8.388;2024-02-21T14:02:19;5.88;;;2.80;;
6864;SDS011;3471;49.678;8.388;2024-02-21T14:04:46;10.27;;;2.40;;
6864;SDS011;3471;49.678;8.388;2024-02-21T14:07:12;3.65;;;2.65;;
6864;SDS011;3471;49.678;8.388;2024-02-21T14:09:37;3.80;;;3.20;;
6864;SDS011;3471;49.678;8.388;2024-02-21T14:12:03;10.87;;;3.13;;
6864;SDS011;3471;49.678;8.388;2024-02-21T14:14:32;7.88;;;2.40;;
6864;SDS011;3471;49.678;8.388;2024-02-21T14:16:59;4.30;;;2.50;;
6864;SDS011;3471;49.678;8.388;2024-02-21T14:19:25;4.67;;;3.23;;
6864;SDS011;3471;49.678;8.388;2024-02-21T14:21:50;6.30;;;3.10;;
6864;SDS011;3471;49.678;8.388;2024-02-21T14:24:16;5.85;;;3.25;;
6864;SDS011;3471;49.678;8.388;2024-02-21T14:26:42;7.20;;;3.80;;
6864;SDS011;3471;49.678;8.388;2024-02-21T14:29:07;6.43;;;3.17;;
6864;SDS011;3471;49.678;8.388;2024-02-21T14:31:33;12.27;;;3.80;;
6864;SDS011;3471;49.678;8.388;2024-02-21T14:33:58;5.90;;;3.20;;
6864;SDS011;3471;49.678;8.388;2024-02-21T14:36:25;9.80;;;3.10;;
6864;SDS011;3471;49.678;8.388;2024-02-21T14:38:51;8.02;;;3.45;;
6864;SDS011;3471;49.678;8.388;2024-02-21T14:41:17;9.90;;;3.83;;
6864;SDS011;3471;49.678;8.388;2024-02-21T14:43:43;13.00;;;4.50;;
6864;SDS011;3471;49.678;8.388;2024-02-21T14:46:09;8.33;;;3.30;;
6864;SDS011;3471;49.678;8.388;2024-02-21T14:48:34;5.65;;;2.92;;
6864;SDS011;3471;49.678;8.388;2024-02-21T14:51:01;6.32;;;3.67;;
6864;SDS011;3471;49.678;8.388;2024-02-21T14:53:27;8.53;;;3.10;;
6864;SDS011;3471;49.678;8.388;2024-02-21T14:55:52;8.70;;;2.95;;
6864;SDS011;3471;49.678;8.388;2024-02-21T14:58:18;7.00;;;3.42;;
6864;SDS011;3471;49.678;8.388;2024-02-21T15:00:44;4.57;;;2.58;;
6864;SDS011;3471;49.678;8.388;2024-02-21T15:03:11;8.32;;;3.80;;
6864;SDS011;3471;49.678;8.388;2024-02-21T15:05:40;9.80;;;2.50;;
6864;SDS011;3471;49.678;8.388;2024-02-21T15:08:06;6.70;;;3.80;;
6864;SDS011;3471;49.678;8.388;2024-02-21T15:10:34;5.20;;;2.55;;
6864;SDS011;3471;49.678;8.388;2024-02-21T15:13:00;5.22;;;2.60;;